Aviation Digital Data Service (ADDS)

Output produced by METARs form (0547 UTC 25 February 2018)
found at http://aviationweather.gov/adds/metars/
 
METAR text: FMCH 250500Z VRB01KT 9999 FEW020 30/24 Q1011 NOSIG
Conditions at: FMCH (MORONI/HAHAIA IN, KM) observed 0500 UTC 25 February 2018
Temperature: 30.0°C (86°F)
Dewpoint: 24.0°C (75°F) [RH = 70%]
Pressure (altimeter): 29.85 inches Hg (1011.0 mb)
Winds: variable direction winds at 1 MPH (1 knots; 0.5 m/s)
Visibility: 6 or more miles (10+ km)
Ceiling: at least 12,000 feet AGL
Clouds: few clouds at 2000 feet AGL
Weather: no significant weather observed at this time

METAR text: FMCH 250400Z 10007KT 9999 FEW020 28/23 Q1010 NOSIG
Conditions at: FMCH (MORONI/HAHAIA IN, KM) observed 0400 UTC 25 February 2018
Temperature: 28.0°C (82°F)
Dewpoint: 23.0°C (73°F) [RH = 74%]
Pressure (altimeter): 29.82 inches Hg (1010.0 mb)
Winds: from the E (100 degrees) at 8 MPH (7 knots; 3.6 m/s)
Visibility: 6 or more miles (10+ km)
Ceiling: at least 12,000 feet AGL
Clouds: few clouds at 2000 feet AGL
Weather: no significant weather observed at this time

METAR text: FMCH 250300Z 12005KT 090V150 9999 FEW020 27/23 Q1009 NOSIG
Conditions at: FMCH (MORONI/HAHAIA IN, KM) observed 0300 UTC 25 February 2018
Temperature: 27.0°C (81°F)
Dewpoint: 23.0°C (73°F) [RH = 79%]
Pressure (altimeter): 29.79 inches Hg (1009.0 mb)
Winds: from the ESE (120 degrees) at 6 MPH (5 knots; 2.6 m/s)
Visibility: 6 or more miles (10+ km)
Ceiling: at least 12,000 feet AGL
Clouds: few clouds at 2000 feet AGL
Weather: no significant weather observed at this time

METAR text: FMCH 250100Z METAR
Conditions at: FMCH (MORONI/HAHAIA IN, KM) observed 0100 UTC 25 February 2018
Temperature: missing
Dewpoint: missing
Pressure (altimeter): missing
Winds: missing
Visibility: missing
Ceiling: unknown
Clouds: missing
Weather: no significant weather observed at this time

METAR text: FMCH 241800Z 36003KT 9999 SCT020TCU 28/26 Q1010 NOSIG
Conditions at: FMCH (MORONI/HAHAIA IN, KM) observed 1800 UTC 24 February 2018
Temperature: 28.0°C (82°F)
Dewpoint: 26.0°C (79°F) [RH = 89%]
Pressure (altimeter): 29.82 inches Hg (1010.0 mb)
Winds: from the N (360 degrees) at 3 MPH (3 knots; 1.6 m/s)
Visibility: 6 or more miles (10+ km)
Ceiling: at least 12,000 feet AGL
Clouds: scattered clouds at 2000 feet AGL
Weather: no significant weather observed at this time

METAR text: FMCH 241700Z 01003KT 9999 FEW020CB SCT023 29/25 Q1010 NOSIG
Conditions at: FMCH (MORONI/HAHAIA IN, KM) observed 1700 UTC 24 February 2018
Temperature: 29.0°C (84°F)
Dewpoint: 25.0°C (77°F) [RH = 79%]
Pressure (altimeter): 29.82 inches Hg (1010.0 mb)
Winds: from the N (10 degrees) at 3 MPH (3 knots; 1.6 m/s)
Visibility: 6 or more miles (10+ km)
Ceiling: at least 12,000 feet AGL
Clouds: few clouds at 2000 feet AGL
scattered clouds at 2300 feet AGL
Weather: no significant weather observed at this time

METAR text: FMCH 241600Z 00000KT 9999 FEW020CB SCT022TCU 29/25 Q1009 NOSIG
Conditions at: FMCH (MORONI/HAHAIA IN, KM) observed 1600 UTC 24 February 2018
Temperature: 29.0°C (84°F)
Dewpoint: 25.0°C (77°F) [RH = 79%]
Pressure (altimeter): 29.79 inches Hg (1009.0 mb)
Winds: calm
Visibility: 6 or more miles (10+ km)
Ceiling: at least 12,000 feet AGL
Clouds: few clouds at 2000 feet AGL
scattered clouds at 2200 feet AGL
Weather: no significant weather observed at this time

METAR text: FMCH 241500Z 31004KT 9999 SCT020TCU 30/25 Q1009 NOSIG
Conditions at: FMCH (MORONI/HAHAIA IN, KM) observed 1500 UTC 24 February 2018
Temperature: 30.0°C (86°F)
Dewpoint: 25.0°C (77°F) [RH = 75%]
Pressure (altimeter): 29.79 inches Hg (1009.0 mb)
Winds: from the NW (310 degrees) at 5 MPH (4 knots; 2.1 m/s)
Visibility: 6 or more miles (10+ km)
Ceiling: at least 12,000 feet AGL
Clouds: scattered clouds at 2000 feet AGL
Weather: no significant weather observed at this time

METAR text: FMCH 241400Z 30006KT 9999 FEW020CB SCT023 32/26 Q1008 NOSIG
Conditions at: FMCH (MORONI/HAHAIA IN, KM) observed 1400 UTC 24 February 2018
Temperature: 32.0°C (90°F)
Dewpoint: 26.0°C (79°F) [RH = 71%]
Pressure (altimeter): 29.76 inches Hg (1008.0 mb)
Winds: from the WNW (300 degrees) at 7 MPH (6 knots; 3.1 m/s)
Visibility: 6 or more miles (10+ km)
Ceiling: at least 12,000 feet AGL
Clouds: few clouds at 2000 feet AGL
scattered clouds at 2300 feet AGL
Weather: no significant weather observed at this time

METAR text: FMCH 241300Z 28005KT 9999 FEW020CB SC022TCU 32/26 Q1008 NOSIG
Conditions at: FMCH (MORONI/HAHAIA IN, KM) observed 1300 UTC 24 February 2018
Temperature: 32.0°C (90°F)
Dewpoint: 26.0°C (79°F) [RH = 71%]
Pressure (altimeter): 29.76 inches Hg (1008.0 mb)
Winds: from the W (280 degrees) at 6 MPH (5 knots; 2.6 m/s)
Visibility: 6 or more miles (10+ km)
Ceiling: at least 12,000 feet AGL
Clouds: few clouds at 2000 feet AGL
Weather: no significant weather observed at this time

METAR text: FMCH 241200Z 27004KT 240V300 9999 FEW020CB SCT025 32/25 Q1009 NOSIG
Conditions at: FMCH (MORONI/HAHAIA IN, KM) observed 1200 UTC 24 February 2018
Temperature: 32.0°C (90°F)
Dewpoint: 25.0°C (77°F) [RH = 67%]
Pressure (altimeter): 29.79 inches Hg (1009.0 mb)
Winds: from the W (270 degrees) at 5 MPH (4 knots; 2.1 m/s)
Visibility: 6 or more miles (10+ km)
Ceiling: at least 12,000 feet AGL
Clouds: few clouds at 2000 feet AGL
scattered clouds at 2500 feet AGL
Weather: no significant weather observed at this time

METAR text: FMCH 241100Z 27004KT 9999 TS SCT020CB 32/25 Q1009 NOSIG
Conditions at: FMCH (MORONI/HAHAIA IN, KM) observed 1100 UTC 24 February 2018
Temperature: 32.0°C (90°F)
Dewpoint: 25.0°C (77°F) [RH = 67%]
Pressure (altimeter): 29.79 inches Hg (1009.0 mb)
Winds: from the W (270 degrees) at 5 MPH (4 knots; 2.1 m/s)
Visibility: 6 or more miles (10+ km)
Ceiling: at least 12,000 feet AGL
Clouds: scattered clouds at 2000 feet AGL
Weather: TS  (thunderstorm)

METAR text: FMCH 241000Z VRB02KT 9999 TS SCT015CB 30/26 Q1010 NOSIG
Conditions at: FMCH (MORONI/HAHAIA IN, KM) observed 1000 UTC 24 February 2018
Temperature: 30.0°C (86°F)
Dewpoint: 26.0°C (79°F) [RH = 79%]
Pressure (altimeter): 29.82 inches Hg (1010.0 mb)
Winds: variable direction winds at 2 MPH (2 knots; 1.0 m/s)
Visibility: 6 or more miles (10+ km)
Ceiling: at least 12,000 feet AGL
Clouds: scattered clouds at 1500 feet AGL
Weather: TS  (thunderstorm)

METAR text: FMCH 240900Z 29003KT 9999 TS FEW020CB SCT030 31/25 Q1011 NOSIG
Conditions at: FMCH (MORONI/HAHAIA IN, KM) observed 0900 UTC 24 February 2018
Temperature: 31.0°C (88°F)
Dewpoint: 25.0°C (77°F) [RH = 71%]
Pressure (altimeter): 29.85 inches Hg (1011.0 mb)
Winds: from the WNW (290 degrees) at 3 MPH (3 knots; 1.6 m/s)
Visibility: 6 or more miles (10+ km)
Ceiling: at least 12,000 feet AGL
Clouds: few clouds at 2000 feet AGL
scattered clouds at 3000 feet AGL
Weather: TS  (thunderstorm)

METAR text: FMCH 240800Z 29005KT 9999 FEW018CB SCT020TCU 32/25 Q1011 TEMPO TS
Conditions at: FMCH (MORONI/HAHAIA IN, KM) observed 0800 UTC 24 February 2018
Temperature: 32.0°C (90°F)
Dewpoint: 25.0°C (77°F) [RH = 67%]
Pressure (altimeter): 29.85 inches Hg (1011.0 mb)
Winds: from the WNW (290 degrees) at 6 MPH (5 knots; 2.6 m/s)
Visibility: 6 or more miles (10+ km)
Ceiling: at least 12,000 feet AGL
Clouds: few clouds at 1800 feet AGL
scattered clouds at 2000 feet AGL
Weather: no significant weather observed at this time

METAR text: FMCH 240700Z 28003KT 9999 FEW020TCU 31/25 Q1011 NOSIG
Conditions at: FMCH (MORONI/HAHAIA IN, KM) observed 0700 UTC 24 February 2018
Temperature: 31.0°C (88°F)
Dewpoint: 25.0°C (77°F) [RH = 71%]
Pressure (altimeter): 29.85 inches Hg (1011.0 mb)
Winds: from the W (280 degrees) at 3 MPH (3 knots; 1.6 m/s)
Visibility: 6 or more miles (10+ km)
Ceiling: at least 12,000 feet AGL
Clouds: few clouds at 2000 feet AGL
Weather: no significant weather observed at this time

METAR text: FMCH 240600Z 23003KT 9999 FEW020CB SCT080 30/25 Q1011 TEMPO TS
Conditions at: FMCH (MORONI/HAHAIA IN, KM) observed 0600 UTC 24 February 2018
Temperature: 30.0°C (86°F)
Dewpoint: 25.0°C (77°F) [RH = 75%]
Pressure (altimeter): 29.85 inches Hg (1011.0 mb)
Winds: from the SW (230 degrees) at 3 MPH (3 knots; 1.6 m/s)
Visibility: 6 or more miles (10+ km)
Ceiling: at least 12,000 feet AGL
Clouds: few clouds at 2000 feet AGL
scattered clouds at 8000 feet AGL
Weather: no significant weather observed at this time

METAR text: FMCH 240500Z VRB01KT 9999 FEW020TCU BKN080 29/24 Q1011 NOSIG
Conditions at: FMCH (MORONI/HAHAIA IN, KM) observed 0500 UTC 24 February 2018
Temperature: 29.0°C (84°F)
Dewpoint: 24.0°C (75°F) [RH = 74%]
Pressure (altimeter): 29.85 inches Hg (1011.0 mb)
Winds: variable direction winds at 1 MPH (1 knots; 0.5 m/s)
Visibility: 6 or more miles (10+ km)
Ceiling: 8000 feet AGL
Clouds: few clouds at 2000 feet AGL
broken clouds at 8000 feet AGL
Weather: no significant weather observed at this time

METAR text: FMCH 240400Z 08003KT 9999 FEW020TCU BKN080 27/23 Q1010 NOSIG
Conditions at: FMCH (MORONI/HAHAIA IN, KM) observed 0400 UTC 24 February 2018
Temperature: 27.0°C (81°F)
Dewpoint: 23.0°C (73°F) [RH = 79%]
Pressure (altimeter): 29.82 inches Hg (1010.0 mb)
Winds: from the E (80 degrees) at 3 MPH (3 knots; 1.6 m/s)
Visibility: 6 or more miles (10+ km)
Ceiling: 8000 feet AGL
Clouds: few clouds at 2000 feet AGL
broken clouds at 8000 feet AGL
Weather: no significant weather observed at this time

METAR text: FMCH 240300Z 07003KT 9999 FEW020 BKN030 27/23 Q1009 NOSIG
Conditions at: FMCH (MORONI/HAHAIA IN, KM) observed 0300 UTC 24 February 2018
Temperature: 27.0°C (81°F)
Dewpoint: 23.0°C (73°F) [RH = 79%]
Pressure (altimeter): 29.79 inches Hg (1009.0 mb)
Winds: from the ENE (70 degrees) at 3 MPH (3 knots; 1.6 m/s)
Visibility: 6 or more miles (10+ km)
Ceiling: 3000 feet AGL
Clouds: few clouds at 2000 feet AGL
broken clouds at 3000 feet AGL
Weather: no significant weather observed at this time

METAR text: FMCH 232200Z 08003KT 9999 FEW020 SCT027 27/23 Q1009 NOSIG
Conditions at: FMCH (MORONI/HAHAIA IN, KM) observed 2200 UTC 23 February 2018
Temperature: 27.0°C (81°F)
Dewpoint: 23.0°C (73°F) [RH = 79%]
Pressure (altimeter): 29.79 inches Hg (1009.0 mb)
Winds: from the E (80 degrees) at 3 MPH (3 knots; 1.6 m/s)
Visibility: 6 or more miles (10+ km)
Ceiling: at least 12,000 feet AGL
Clouds: few clouds at 2000 feet AGL
scattered clouds at 2700 feet AGL
Weather: no significant weather observed at this time

METAR text: FMCH 232100Z 09003KT 9999 FEW020 SCT027 27/23 Q1010 NOSIG
Conditions at: FMCH (MORONI/HAHAIA IN, KM) observed 2100 UTC 23 February 2018
Temperature: 27.0°C (81°F)
Dewpoint: 23.0°C (73°F) [RH = 79%]
Pressure (altimeter): 29.82 inches Hg (1010.0 mb)
Winds: from the E (90 degrees) at 3 MPH (3 knots; 1.6 m/s)
Visibility: 6 or more miles (10+ km)
Ceiling: at least 12,000 feet AGL
Clouds: few clouds at 2000 feet AGL
scattered clouds at 2700 feet AGL
Weather: no significant weather observed at this time

METAR text: FMCH 232000Z 07003KT 9999 FEW020 SCT027 27/23 Q1010 NOSIG
Conditions at: FMCH (MORONI/HAHAIA IN, KM) observed 2000 UTC 23 February 2018
Temperature: 27.0°C (81°F)
Dewpoint: 23.0°C (73°F) [RH = 79%]
Pressure (altimeter): 29.82 inches Hg (1010.0 mb)
Winds: from the ENE (70 degrees) at 3 MPH (3 knots; 1.6 m/s)
Visibility: 6 or more miles (10+ km)
Ceiling: at least 12,000 feet AGL
Clouds: few clouds at 2000 feet AGL
scattered clouds at 2700 feet AGL
Weather: no significant weather observed at this time

METAR text: FMCH 231900Z 07003KT 9999 FEW020 SCT027 27/24 Q1010 NOSIG
Conditions at: FMCH (MORONI/HAHAIA IN, KM) observed 1900 UTC 23 February 2018
Temperature: 27.0°C (81°F)
Dewpoint: 24.0°C (75°F) [RH = 84%]
Pressure (altimeter): 29.82 inches Hg (1010.0 mb)
Winds: from the ENE (70 degrees) at 3 MPH (3 knots; 1.6 m/s)
Visibility: 6 or more miles (10+ km)
Ceiling: at least 12,000 feet AGL
Clouds: few clouds at 2000 feet AGL
scattered clouds at 2700 feet AGL
Weather: no significant weather observed at this time

METAR text: FMCH 231800Z 06002KT 9999 FEW020 SCT027 28/24 Q1009 NOSIG
Conditions at: FMCH (MORONI/HAHAIA IN, KM) observed 1800 UTC 23 February 2018
Temperature: 28.0°C (82°F)
Dewpoint: 24.0°C (75°F) [RH = 79%]
Pressure (altimeter): 29.79 inches Hg (1009.0 mb)
Winds: from the ENE (60 degrees) at 2 MPH (2 knots; 1.0 m/s)
Visibility: 6 or more miles (10+ km)
Ceiling: at least 12,000 feet AGL
Clouds: few clouds at 2000 feet AGL
scattered clouds at 2700 feet AGL
Weather: no significant weather observed at this time